Time;durP1;ratioP1;P1;durP2;ratioP2;P2;SDS_P1;SDS_P2;PMS_P1;PMS_P2;Temp;Humidity;BMP_temperature;BMP_pressure;BME280_temperature;BME280_humidity;BME280_pressure;Samples;Min_cycle;Max_cycle;Signal;HPM_P1;HPM_P2
2023/05/17 00:00:50;;;;;;;16.10;3.50;;;10.20;99.90;;;;;;5098704;27;20039;-87
2023/05/17 00:03:16;;;;;;;11.93;3.33;;;10.20;99.90;;;;;;5115850;27;20039;-87
2023/05/17 00:05:41;;;;;;;15.73;4.13;;;10.20;99.90;;;;;;5098660;27;20039;-87
2023/05/17 00:08:07;;;;;;;11.95;3.45;;;10.20;99.90;;;;;;5115996;27;20035;-87
2023/05/17 00:10:32;;;;;;;18.40;3.97;;;10.20;99.90;;;;;;5115545;27;20176;-87
2023/05/17 00:12:58;;;;;;;12.13;3.40;;;10.10;99.90;;;;;;5115750;27;20511;-87
2023/05/17 00:15:24;;;;;;;15.00;3.60;;;10.10;99.90;;;;;;5098472;27;20031;-87
2023/05/17 00:17:49;;;;;;;13.80;3.65;;;10.10;99.90;;;;;;5098430;27;20139;-87
2023/05/17 00:20:16;;;;;;;13.35;3.30;;;10.10;99.90;;;;;;5095341;28;20051;-87
2023/05/17 00:22:44;;;;;;;10.95;3.65;;;10.10;99.90;;;;;;5095120;28;20135;-87
2023/05/17 00:25:10;;;;;;;13.63;3.10;;;10.10;99.90;;;;;;5095114;28;20514;-87
2023/05/17 00:27:35;;;;;;;15.68;3.78;;;10.10;99.90;;;;;;5094911;28;20126;-87
2023/05/17 00:30:01;;;;;;;15.85;3.60;;;10.10;99.90;;;;;;5094650;28;20045;-86
2023/05/17 00:32:27;;;;;;;11.88;2.92;;;10.10;99.90;;;;;;5094819;28;20050;-87
2023/05/17 00:34:52;;;;;;;17.35;3.53;;;10.10;99.90;;;;;;5078096;28;20056;-87
2023/05/17 00:37:18;;;;;;;15.27;2.95;;;10.20;99.90;;;;;;5077779;28;20088;-87
2023/05/17 00:39:44;;;;;;;15.73;2.97;;;10.20;99.90;;;;;;5077509;28;20039;-87
2023/05/17 00:42:10;;;;;;;13.80;3.20;;;10.10;99.90;;;;;;5095045;28;20044;-87
2023/05/17 00:44:35;;;;;;;11.82;3.35;;;10.20;99.90;;;;;;5094534;28;20083;-87
2023/05/17 00:47:01;;;;;;;13.50;3.05;;;10.10;99.90;;;;;;5094556;28;20130;-87
2023/05/17 00:49:28;;;;;;;17.45;3.70;;;10.10;99.90;;;;;;5094245;28;20040;-87
2023/05/17 00:51:54;;;;;;;12.75;3.30;;;10.00;99.90;;;;;;5094717;28;20051;-87
2023/05/17 00:54:20;;;;;;;17.45;3.25;;;10.00;99.90;;;;;;5077637;28;20439;-87
2023/05/17 00:56:47;;;;;;;17.02;4.18;;;10.00;99.90;;;;;;5094238;28;20036;-87
2023/05/17 00:59:13;;;;;;;12.52;2.30;;;9.90;99.90;;;;;;5094605;28;20035;-87
2023/05/17 01:01:42;;;;;;;13.10;2.72;;;9.90;99.90;;;;;;5094522;28;20039;-87
2023/05/17 01:04:09;;;;;;;12.70;2.42;;;9.80;99.90;;;;;;5094254;28;20031;-87
2023/05/17 01:06:35;;;;;;;10.77;3.00;;;9.80;99.90;;;;;;5094765;28;20046;-88
2023/05/17 01:09:02;;;;;;;12.27;3.20;;;9.70;99.90;;;;;;5094429;28;20184;-87
2023/05/17 01:11:53;;;;;;;12.50;2.75;;;9.60;99.90;;;;;;5093878;28;20042;-87
2023/05/17 01:15:04;;;;;;;14.32;3.80;;;9.60;99.90;;;;;;5094094;28;20039;-87
2023/05/17 01:17:43;;;;;;;13.98;2.78;;;9.50;99.90;;;;;;5009622;28;20060;-87
2023/05/17 01:20:40;;;;;;;15.27;2.75;;;9.50;99.90;;;;;;4993089;28;20037;-87
2023/05/17 01:23:34;;;;;;;10.50;2.33;;;9.50;99.90;;;;;;5059257;28;20111;-87
2023/05/17 01:26:20;;;;;;;12.02;2.45;;;9.40;99.90;;;;;;5076528;28;20047;-87
2023/05/17 01:28:52;;;;;;;17.08;2.70;;;9.30;99.90;;;;;;5093986;28;20096;-87
2023/05/17 01:31:19;;;;;;;16.38;2.50;;;9.20;99.90;;;;;;5077382;28;20043;-87
2023/05/17 01:33:45;;;;;;;14.07;2.53;;;9.10;99.90;;;;;;5093841;28;20408;-87
2023/05/17 01:36:11;;;;;;;11.30;2.05;;;9.00;99.90;;;;;;5094134;28;20043;-87
2023/05/17 01:38:36;;;;;;;9.40;1.95;;;9.00;99.90;;;;;;5077021;28;20036;-87
2023/05/17 01:41:16;;;;;;;10.90;2.58;;;9.00;99.90;;;;;;5076821;28;20071;-87
2023/05/17 01:43:59;;;;;;;14.65;2.42;;;9.00;99.90;;;;;;5077177;28;20592;-87
2023/05/17 01:47:05;;;;;;;13.73;3.00;;;8.90;99.90;;;;;;5094076;28;20081;-87
2023/05/17 01:49:36;;;;;;;16.55;2.53;;;8.90;99.90;;;;;;5093558;28;20156;-87
2023/05/17 01:52:14;;;;;;;15.48;2.85;;;8.90;99.90;;;;;;5093748;28;20079;-87
2023/05/17 01:55:03;;;;;;;13.43;2.47;;;8.90;99.90;;;;;;5077022;28;20134;-87
2023/05/17 01:57:32;;;;;;;10.20;2.20;;;8.90;99.90;;;;;;5093744;28;20040;-87
2023/05/17 02:00:00;;;;;;;14.07;2.40;;;9.00;99.90;;;;;;5076857;28;20031;-87
2023/05/17 02:02:27;;;;;;;10.70;2.35;;;9.00;99.90;;;;;;5077001;28;20118;-87
2023/05/17 02:04:53;;;;;;;11.65;2.00;;;9.00;99.90;;;;;;5076870;28;20071;-87
2023/05/17 02:07:19;;;;;;;11.85;2.00;;;9.00;99.90;;;;;;5093834;28;20404;-87
2023/05/17 02:09:44;;;;;;;12.30;2.38;;;9.10;99.90;;;;;;5076338;28;20497;-86
2023/05/17 02:12:10;;;;;;;15.43;3.20;;;9.10;99.90;;;;;;5093523;28;20040;-87
2023/05/17 02:14:36;;;;;;;11.70;2.05;;;9.10;99.90;;;;;;5076652;28;20039;-86
2023/05/17 02:17:04;;;;;;;15.75;2.85;;;9.10;99.90;;;;;;5093645;28;20047;-86
2023/05/17 02:19:30;;;;;;;13.15;2.00;;;9.10;99.90;;;;;;5093206;28;20040;-87
2023/05/17 02:21:56;;;;;;;12.70;2.65;;;9.10;99.90;;;;;;5093484;28;20629;-86
2023/05/17 02:24:21;;;;;;;16.13;2.85;;;9.10;99.90;;;;;;5076662;28;20031;-87
2023/05/17 02:26:47;;;;;;;13.27;2.80;;;9.10;99.90;;;;;;5076621;28;20035;-87
2023/05/17 02:29:13;;;;;;;14.70;2.75;;;9.00;99.90;;;;;;5093373;28;20035;-86
2023/05/17 02:31:39;;;;;;;20.90;3.33;;;9.00;99.90;;;;;;5093070;28;20062;-87
2023/05/17 02:34:04;;;;;;;17.73;3.05;;;9.00;99.90;;;;;;5093311;28;20028;-87
2023/05/17 02:36:31;;;;;;;11.02;2.00;;;9.00;99.90;;;;;;5093421;28;20101;-86
2023/05/17 02:38:57;;;;;;;16.05;3.35;;;9.00;99.90;;;;;;5079803;28;20043;-87
2023/05/17 02:41:22;;;;;;;11.10;2.50;;;8.90;99.90;;;;;;5096696;28;20043;-87
2023/05/17 02:43:48;;;;;;;15.85;2.50;;;9.00;99.90;;;;;;5080333;28;20024;-87
2023/05/17 02:46:14;;;;;;;10.45;2.20;;;8.90;99.90;;;;;;5097030;28;20489;-87
2023/05/17 02:48:39;;;;;;;16.35;2.78;;;8.90;99.90;;;;;;5097102;28;20497;-86
2023/05/17 02:51:05;;;;;;;12.35;2.13;;;8.90;99.90;;;;;;5079709;28;20409;-87
2023/05/17 02:53:30;;;;;;;14.32;3.13;;;8.90;99.90;;;;;;5080254;28;20039;-86
2023/05/17 02:55:59;;;;;;;17.10;2.90;;;8.90;99.90;;;;;;5096720;28;20496;-87
2023/05/17 02:58:25;;;;;;;11.35;2.50;;;8.80;99.90;;;;;;5079606;28;20040;-87
2023/05/17 03:00:50;;;;;;;12.90;2.55;;;8.80;99.90;;;;;;5096388;28;20416;-87
2023/05/17 03:03:16;;;;;;;13.27;2.45;;;8.70;99.90;;;;;;5096564;28;20085;-87
2023/05/17 03:05:42;;;;;;;9.50;2.13;;;8.70;99.90;;;;;;5096566;28;20035;-87
2023/05/17 03:08:08;;;;;;;12.68;3.03;;;8.70;99.90;;;;;;5096401;28;20447;-87
2023/05/17 03:10:34;;;;;;;14.68;2.20;;;8.60;99.90;;;;;;5079480;28;20071;-87
2023/05/17 03:12:59;;;;;;;10.38;2.25;;;8.60;99.90;;;;;;5096400;28;20618;-87
2023/05/17 03:15:28;;;;;;;12.45;2.53;;;8.50;99.90;;;;;;5079510;28;20043;-87
2023/05/17 03:17:54;;;;;;;13.18;2.60;;;8.50;99.90;;;;;;5079366;28;20556;-87
2023/05/17 03:20:20;;;;;;;11.80;2.08;;;8.50;99.90;;;;;;5096226;28;20069;-87
2023/05/17 03:22:46;;;;;;;21.02;2.85;;;8.40;99.90;;;;;;5079624;28;20416;-87
2023/05/17 03:25:12;;;;;;;12.13;2.13;;;8.40;99.90;;;;;;5096353;28;20050;-87
2023/05/17 03:27:37;;;;;;;10.60;2.15;;;8.40;99.90;;;;;;5095733;28;20556;-87
2023/05/17 03:30:03;;;;;;;13.07;2.63;;;8.40;99.90;;;;;;5096147;28;20730;-87
2023/05/17 03:32:29;;;;;;;11.43;2.05;;;8.30;99.90;;;;;;5096077;28;20545;-87
2023/05/17 03:34:54;;;;;;;16.08;3.40;;;8.30;99.90;;;;;;5096276;28;20042;-87
2023/05/17 03:37:20;;;;;;;13.05;2.28;;;8.20;99.90;;;;;;5096111;28;20493;-87
2023/05/17 03:39:46;;;;;;;15.07;2.65;;;8.20;99.90;;;;;;5078867;28;20144;-87
2023/05/17 03:42:11;;;;;;;10.70;2.35;;;8.20;99.90;;;;;;5096115;28;20047;-87
2023/05/17 03:44:37;;;;;;;14.65;2.95;;;8.20;99.90;;;;;;5078917;28;20042;-87
2023/05/17 03:47:03;;;;;;;12.68;2.80;;;8.10;99.90;;;;;;5078935;28;20035;-87
2023/05/17 03:49:28;;;;;;;12.65;2.38;;;8.10;99.90;;;;;;5094906;28;20131;-87
2023/05/17 03:51:54;;;;;;;7.93;2.08;;;8.10;99.90;;;;;;5095852;28;20035;-87
2023/05/17 03:54:20;;;;;;;13.30;2.35;;;8.00;99.90;;;;;;5095511;28;20037;-87
2023/05/17 03:56:47;;;;;;;17.73;2.85;;;8.00;99.90;;;;;;5078642;28;20176;-87
2023/05/17 03:59:13;;;;;;;12.02;2.05;;;8.00;99.90;;;;;;5114176;28;20048;-87
2023/05/17 04:01:39;;;;;;;14.27;2.35;;;8.00;99.90;;;;;;5095540;28;20043;-86
2023/05/17 04:04:05;;;;;;;21.25;3.30;;;8.00;99.90;;;;;;5078619;28;20042;-86
2023/05/17 04:06:31;;;;;;;13.50;2.00;;;8.00;99.90;;;;;;5078526;28;20038;-87
2023/05/17 04:08:58;;;;;;;13.73;2.58;;;8.10;99.90;;;;;;5078377;28;20078;-87
2023/05/17 04:11:26;;;;;;;12.02;2.20;;;8.10;99.90;;;;;;5094788;28;20051;-87
2023/05/17 04:13:52;;;;;;;13.32;2.00;;;8.10;99.90;;;;;;5095800;28;20105;-87
2023/05/17 04:16:18;;;;;;;10.27;1.95;;;8.20;99.90;;;;;;5078332;28;20409;-87
2023/05/17 04:18:44;;;;;;;11.40;2.15;;;8.20;99.90;;;;;;5094982;28;20039;-87
2023/05/17 04:21:10;;;;;;;13.70;2.78;;;8.20;99.90;;;;;;5094769;28;20071;-87
2023/05/17 04:23:36;;;;;;;10.05;1.52;;;8.20;99.90;;;;;;5078063;28;20031;-86
2023/05/17 04:26:03;;;;;;;14.10;2.50;;;8.20;99.90;;;;;;5077869;28;20428;-87
2023/05/17 04:28:29;;;;;;;11.77;2.85;;;8.20;99.90;;;;;;5094902;28;20051;-86
2023/05/17 04:30:55;;;;;;;13.45;2.67;;;8.30;99.90;;;;;;5094649;28;20035;-87
2023/05/17 04:33:21;;;;;;;13.35;2.40;;;8.30;99.90;;;;;;5077951;28;20039;-87
2023/05/17 04:35:46;;;;;;;12.82;2.47;;;8.40;99.90;;;;;;5077968;28;20050;-87
2023/05/17 04:38:12;;;;;;;10.80;1.90;;;8.40;99.90;;;;;;5094592;28;20047;-87
2023/05/17 04:40:38;;;;;;;14.75;3.03;;;8.40;99.90;;;;;;5094412;28;20032;-87
2023/05/17 04:43:03;;;;;;;9.75;1.88;;;8.50;99.90;;;;;;5078052;28;20031;-87
2023/05/17 04:45:29;;;;;;;13.20;2.17;;;8.50;99.90;;;;;;5078111;28;20481;-87
2023/05/17 04:47:55;;;;;;;19.15;2.85;;;8.50;99.90;;;;;;5077829;28;20125;-87
2023/05/17 04:50:21;;;;;;;17.20;1.90;;;8.60;99.90;;;;;;5112564;28;20484;-87
2023/05/17 04:52:46;;;;;;;12.90;2.78;;;8.60;99.90;;;;;;5094755;28;20039;-87
2023/05/17 04:55:12;;;;;;;9.57;1.70;;;8.60;99.90;;;;;;5094463;28;20539;-87
2023/05/17 04:57:38;;;;;;;10.88;1.90;;;8.70;99.90;;;;;;5094473;28;20404;-87
2023/05/17 05:00:09;;;;;;;8.07;1.73;;;8.80;99.90;;;;;;5094330;28;20070;-87
2023/05/17 05:02:35;;;;;;;9.60;2.10;;;8.80;99.90;;;;;;5093797;28;20501;-87
2023/05/17 05:05:01;;;;;;;16.67;2.22;;;8.80;99.90;;;;;;5077675;28;20125;-88
2023/05/17 05:07:26;;;;;;;17.23;3.78;;;8.90;99.90;;;;;;5094269;28;20487;-87
2023/05/17 05:09:52;;;;;;;16.95;2.92;;;8.90;99.90;;;;;;5093739;28;20118;-87
2023/05/17 05:12:18;;;;;;;14.23;2.22;;;8.90;99.90;;;;;;5094903;28;20039;-87
2023/05/17 05:14:43;;;;;;;7.88;2.08;;;8.90;99.90;;;;;;5077400;28;20453;-87
2023/05/17 05:17:09;;;;;;;8.68;1.75;;;9.00;99.90;;;;;;5094151;28;20525;-87
2023/05/17 05:19:35;;;;;;;14.43;2.08;;;9.00;99.90;;;;;;5093717;28;20373;-87
2023/05/17 05:22:00;;;;;;;9.55;1.70;;;9.10;99.90;;;;;;5077416;28;20077;-86
2023/05/17 05:24:26;;;;;;;11.75;2.13;;;9.20;99.90;;;;;;5094023;28;20076;-86
2023/05/17 05:26:51;;;;;;;11.55;2.17;;;9.30;99.90;;;;;;5093991;28;20408;-87
2023/05/17 05:29:18;;;;;;;15.43;1.75;;;9.40;99.90;;;;;;5094092;28;20062;-86
2023/05/17 05:31:43;;;;;;;6.40;1.55;;;9.50;99.90;;;;;;5093742;28;20028;-87
2023/05/17 05:34:09;;;;;;;10.35;1.95;;;9.50;99.90;;;;;;5077099;28;20462;-87
2023/05/17 05:36:35;;;;;;;7.18;2.03;;;9.60;99.90;;;;;;5093899;28;20074;-87
2023/05/17 05:39:01;;;;;;;5.35;1.15;;;9.70;99.90;;;;;;5076833;28;20035;-87
2023/05/17 05:41:26;;;;;;;9.38;2.25;;;9.70;99.90;;;;;;5076659;28;20067;-87
2023/05/17 05:43:52;;;;;;;9.85;1.65;;;9.70;99.90;;;;;;5093932;28;20044;-87
2023/05/17 05:46:18;;;;;;;8.88;1.63;;;9.80;99.90;;;;;;5077314;28;20122;-87
2023/05/17 05:48:43;;;;;;;9.82;1.40;;;9.70;99.90;;;;;;5093855;28;20126;-86
2023/05/17 05:51:09;;;;;;;7.68;1.75;;;9.70;99.90;;;;;;5093475;28;20075;-87
2023/05/17 05:53:35;;;;;;;9.75;1.67;;;9.70;99.90;;;;;;5093615;28;20492;-87
2023/05/17 05:56:01;;;;;;;8.95;1.33;;;9.80;99.90;;;;;;5076898;28;20061;-87
2023/05/17 05:58:28;;;;;;;10.13;2.00;;;9.80;99.90;;;;;;5076777;28;20048;-88
2023/05/17 06:00:54;;;;;;;10.60;3.08;;;9.80;99.90;;;;;;5076589;28;20077;-87
2023/05/17 06:03:20;;;;;;;7.38;1.33;;;9.90;99.90;;;;;;5093630;28;20509;-87
2023/05/17 06:05:45;;;;;;;6.30;1.10;;;9.90;99.90;;;;;;5076853;28;20165;-87
2023/05/17 06:08:11;;;;;;;7.30;1.00;;;10.00;99.90;;;;;;5093777;28;20043;-87
2023/05/17 06:10:37;;;;;;;5.93;1.10;;;10.10;99.90;;;;;;5093337;28;20400;-88
2023/05/17 06:13:02;;;;;;;7.68;1.20;;;10.10;99.90;;;;;;5095599;28;20050;-86
2023/05/17 06:15:30;;;;;;;5.60;1.00;;;10.20;99.90;;;;;;5080833;28;20046;-88
2023/05/17 06:17:56;;;;;;;6.90;1.13;;;10.30;99.90;;;;;;5080671;28;20126;-87
2023/05/17 06:20:21;;;;;;;9.48;1.88;;;10.30;99.90;;;;;;5097141;28;20067;-87
2023/05/17 06:22:47;;;;;;;5.20;1.35;;;10.40;99.90;;;;;;5080450;28;20032;-87
2023/05/17 06:25:13;;;;;;;9.82;1.55;;;10.50;99.90;;;;;;5097788;28;20081;-87
2023/05/17 06:27:38;;;;;;;9.18;1.45;;;10.50;99.90;;;;;;5080572;28;20044;-86
2023/05/17 06:30:05;;;;;;;7.60;0.90;;;10.60;99.90;;;;;;5097045;28;20044;-87
2023/05/17 06:32:30;;;;;;;10.05;1.45;;;10.70;99.90;;;;;;5097314;28;20075;-87
2023/05/17 06:34:56;;;;;;;6.47;1.08;;;10.80;99.90;;;;;;5096966;28;20090;-87
2023/05/17 06:37:22;;;;;;;10.50;1.58;;;11.00;99.90;;;;;;5079974;28;20581;-87
2023/05/17 06:39:50;;;;;;;6.05;1.33;;;11.00;99.90;;;;;;5079979;28;20269;-87
2023/05/17 06:42:16;;;;;;;5.57;1.10;;;11.00;97.00;;;;;;5080228;28;20442;-87
2023/05/17 06:44:42;;;;;;;10.45;1.50;;;11.00;96.70;;;;;;5097069;28;20035;-87
2023/05/17 06:47:07;;;;;;;8.05;1.05;;;10.90;95.80;;;;;;5079978;28;20081;-87
2023/05/17 06:49:33;;;;;;;12.50;1.27;;;10.90;95.30;;;;;;5079701;28;20032;-87
2023/05/17 06:52:02;;;;;;;6.88;1.20;;;10.90;95.20;;;;;;5079863;28;20032;-86
2023/05/17 06:54:29;;;;;;;9.25;1.50;;;11.00;95.40;;;;;;5096854;28;20168;-86
2023/05/17 06:56:58;;;;;;;7.80;1.00;;;11.00;94.50;;;;;;5096642;28;20047;-87
2023/05/17 06:59:23;;;;;;;7.75;2.45;;;11.00;93.30;;;;;;5096952;28;20087;-87
2023/05/17 07:01:49;;;;;;;11.30;1.70;;;11.10;93.80;;;;;;5096417;28;20492;-87
2023/05/17 07:04:15;;;;;;;7.68;1.30;;;11.20;94.10;;;;;;5079491;28;20035;-87
2023/05/17 07:06:40;;;;;;;9.88;1.60;;;11.30;93.60;;;;;;5097123;28;20031;-87
2023/05/17 07:09:06;;;;;;;13.05;1.60;;;11.30;93.60;;;;;;5096702;28;20043;-87
2023/05/17 07:11:32;;;;;;;9.55;1.25;;;11.40;93.50;;;;;;5095119;28;20050;-87
2023/05/17 07:13:58;;;;;;;9.48;1.52;;;11.50;92.80;;;;;;5096453;28;20043;-87
2023/05/17 07:16:23;;;;;;;10.30;1.25;;;11.50;92.40;;;;;;5079640;28;20591;-87
2023/05/17 07:18:49;;;;;;;9.93;1.33;;;11.50;92.00;;;;;;5079230;28;20050;-86
2023/05/17 07:21:14;;;;;;;12.75;2.03;;;11.50;91.40;;;;;;5096250;28;20041;-86
2023/05/17 07:23:40;;;;;;;11.02;1.92;;;11.50;90.80;;;;;;5078929;28;20040;-86
2023/05/17 07:26:06;;;;;;;6.43;1.20;;;11.40;90.20;;;;;;5079150;28;20484;-86
2023/05/17 07:28:31;;;;;;;8.45;1.70;;;11.50;90.30;;;;;;5095588;28;20047;-86
2023/05/17 07:30:57;;;;;;;7.50;1.40;;;11.40;88.30;;;;;;5078722;28;20585;-87
2023/05/17 07:33:22;;;;;;;7.25;1.52;;;11.50;88.90;;;;;;5095944;28;20039;-86
2023/05/17 07:35:48;;;;;;;9.77;1.55;;;11.50;89.20;;;;;;5096041;28;20039;-87
2023/05/17 07:38:13;;;;;;;10.65;1.60;;;11.60;88.60;;;;;;5078919;28;20032;-86
2023/05/17 07:40:39;;;;;;;9.95;1.40;;;11.60;88.10;;;;;;5095691;28;20069;-86
2023/05/17 07:43:05;;;;;;;12.02;1.90;;;11.60;87.60;;;;;;5095947;28;20035;-86
2023/05/17 07:45:30;;;;;;;8.85;1.60;;;11.60;87.90;;;;;;5078995;28;20035;-86
2023/05/17 07:47:56;;;;;;;9.20;2.47;;;11.60;87.90;;;;;;5095936;28;20043;-87
2023/05/17 07:50:22;;;;;;;11.45;2.92;;;11.80;88.20;;;;;;5095464;28;20720;-86
2023/05/17 07:52:47;;;;;;;12.13;1.73;;;11.90;87.90;;;;;;5095855;28;20042;-86
2023/05/17 07:55:13;;;;;;;8.52;1.92;;;12.00;87.00;;;;;;5079107;28;20127;-86
2023/05/17 07:57:38;;;;;;;13.10;2.15;;;12.10;86.20;;;;;;5095441;28;20481;-86
2023/05/17 08:00:05;;;;;;;8.50;2.35;;;12.20;85.90;;;;;;5095315;28;20032;-86
2023/05/17 08:02:31;;;;;;;10.40;1.83;;;12.20;85.20;;;;;;5078332;28;20085;-87
2023/05/17 08:04:56;;;;;;;15.93;3.78;;;12.30;85.70;;;;;;5078477;28;20035;-86
2023/05/17 08:07:22;;;;;;;15.70;4.10;;;12.50;82.90;;;;;;5095441;28;20069;-87
2023/05/17 08:09:47;;;;;;;9.95;1.83;;;12.70;81.40;;;;;;5095131;28;20027;-86
2023/05/17 08:12:13;;;;;;;12.57;2.42;;;12.70;81.50;;;;;;5095398;28;20054;-86
2023/05/17 08:14:39;;;;;;;9.60;2.03;;;12.60;81.60;;;;;;5078322;28;20070;-86
2023/05/17 08:17:05;;;;;;;12.75;1.95;;;12.60;82.40;;;;;;5078165;28;20412;-85
2023/05/17 08:19:30;;;;;;;12.05;2.08;;;12.60;82.70;;;;;;5097745;27;20032;-86
2023/05/17 08:21:56;;;;;;;16.25;4.63;;;12.60;82.50;;;;;;5095478;27;20039;-86
2023/05/17 08:24:21;;;;;;;13.48;3.28;;;12.70;80.60;;;;;;5097144;27;20518;-85
2023/05/17 08:26:47;;;;;;;9.63;1.85;;;12.70;81.20;;;;;;5115770;27;20027;-86
2023/05/17 08:29:12;;;;;;;9.02;2.05;;;12.70;81.90;;;;;;5098183;27;20079;-86
2023/05/17 08:31:38;;;;;;;12.52;2.05;;;12.60;81.60;;;;;;5115037;27;20400;-86
2023/05/17 08:34:04;;;;;;;8.65;1.83;;;12.60;80.80;;;;;;5098155;27;20035;-86
2023/05/17 08:36:29;;;;;;;7.95;1.70;;;12.60;81.00;;;;;;5115376;27;20074;-86
2023/05/17 08:38:55;;;;;;;15.70;3.90;;;12.70;81.40;;;;;;5115021;27;20057;-87
2023/05/17 08:41:21;;;;;;;9.90;2.20;;;12.90;80.50;;;;;;5115118;27;20031;-87
2023/05/17 08:43:48;;;;;;;10.90;1.90;;;13.00;80.30;;;;;;5114485;27;20112;-86
2023/05/17 08:46:15;;;;;;;11.80;2.00;;;13.00;80.20;;;;;;5087172;27;20031;-86
2023/05/17 08:48:42;;;;;;;14.20;3.80;;;13.00;79.80;;;;;;5113675;27;20039;-87
2023/05/17 08:51:10;;;;;;;10.90;1.90;;;13.00;77.90;;;;;;5114678;27;20090;-87
2023/05/17 08:53:37;;;;;;;12.35;1.95;;;13.00;78.00;;;;;;5094540;27;20027;-87
2023/05/17 08:56:05;;;;;;;10.73;2.22;;;13.00;79.00;;;;;;5091795;27;20066;-86
2023/05/17 08:58:37;;;;;;;13.25;2.17;;;13.00;79.10;;;;;;5096659;27;20035;-86
2023/05/17 09:01:06;;;;;;;11.15;1.85;;;13.00;78.40;;;;;;5110571;27;20031;-86
2023/05/17 09:03:34;;;;;;;13.60;3.58;;;13.10;78.60;;;;;;5104318;28;20036;-87
2023/05/17 09:06:00;;;;;;;10.95;1.88;;;13.20;76.30;;;;;;5105352;27;20082;-87
2023/05/17 09:08:27;;;;;;;10.88;3.08;;;13.30;76.40;;;;;;5085616;27;20043;-87
2023/05/17 09:10:53;;;;;;;11.10;1.70;;;13.40;76.80;;;;;;5085887;27;20039;-87
2023/05/17 09:13:19;;;;;;;13.70;3.72;;;13.50;77.30;;;;;;5085524;27;20408;-87
2023/05/17 09:15:47;;;;;;;13.40;2.78;;;13.60;76.80;;;;;;5102677;28;20079;-87
2023/05/17 09:18:13;;;;;;;13.02;3.50;;;13.60;76.70;;;;;;5094933;28;20075;-87
2023/05/17 09:20:40;;;;;;;16.02;4.55;;;13.80;75.40;;;;;;5077491;28;20035;-87
2023/05/17 09:23:13;;;;;;;12.52;1.92;;;13.90;74.80;;;;;;5094145;28;20035;-87
2023/05/17 09:25:47;;;;;;;11.48;2.00;;;13.90;75.50;;;;;;5102831;28;20039;-87
2023/05/17 09:28:12;;;;;;;15.50;2.97;;;13.80;75.40;;;;;;5097293;27;20043;-86
2023/05/17 09:30:38;;;;;;;15.43;3.55;;;13.90;75.70;;;;;;5097013;28;20046;-87
2023/05/17 09:33:09;;;;;;;10.68;1.90;;;13.90;73.60;;;;;;5114255;27;20131;-87
2023/05/17 09:35:36;;;;;;;12.32;1.98;;;13.90;73.70;;;;;;5112896;28;20039;-87
2023/05/17 09:38:12;;;;;;;15.07;3.17;;;13.90;74.30;;;;;;5097103;28;20035;-87
2023/05/17 09:40:40;;;;;;;12.23;3.10;;;14.00;72.80;;;;;;5096841;28;20123;-87
2023/05/17 09:43:06;;;;;;;12.85;2.15;;;14.10;72.20;;;;;;5097327;28;20039;-87
2023/05/17 09:45:32;;;;;;;15.20;4.35;;;14.00;72.70;;;;;;5097323;28;20122;-87
2023/05/17 09:48:09;;;;;;;10.10;2.40;;;14.20;72.10;;;;;;5112939;27;20087;-86
2023/05/17 09:50:35;;;;;;;9.40;1.95;;;14.20;71.70;;;;;;5118256;27;20039;-87
2023/05/17 09:53:01;;;;;;;14.00;3.85;;;14.20;72.70;;;;;;5118320;27;20088;-86
2023/05/17 09:55:27;;;;;;;11.93;1.75;;;14.40;70.90;;;;;;5118446;27;20051;-86
2023/05/17 09:57:52;;;;;;;15.35;2.80;;;14.40;70.90;;;;;;5101346;27;20054;-87
2023/05/17 10:00:21;;;;;;;9.95;2.20;;;14.50;71.20;;;;;;5117976;27;20027;-87
2023/05/17 10:02:48;;;;;;;14.07;2.97;;;14.50;71.00;;;;;;5101234;27;20031;-87
2023/05/17 10:05:16;;;;;;;16.63;2.75;;;14.60;70.40;;;;;;5101222;27;20496;-87
2023/05/17 10:07:41;;;;;;;12.73;3.10;;;14.70;70.70;;;;;;5095932;27;20512;-87
2023/05/17 10:10:08;;;;;;;12.75;3.30;;;14.90;71.00;;;;;;5091090;27;20032;-86
2023/05/17 10:12:34;;;;;;;13.90;3.08;;;15.10;69.20;;;;;;5092299;27;20039;-87
2023/05/17 10:15:01;;;;;;;12.65;2.97;;;15.20;68.70;;;;;;5111207;27;20035;-87
2023/05/17 10:17:28;;;;;;;11.70;3.00;;;15.20;67.90;;;;;;5100735;27;20039;-87
2023/05/17 10:19:55;;;;;;;11.00;2.05;;;15.20;67.90;;;;;;5100559;27;20038;-87
2023/05/17 10:22:21;;;;;;;17.05;4.45;;;15.10;68.40;;;;;;5100694;27;20374;-86
2023/05/17 10:24:48;;;;;;;13.60;3.80;;;15.10;68.20;;;;;;5101010;27;20038;-87
2023/05/17 10:27:15;;;;;;;14.32;3.03;;;15.10;68.40;;;;;;5117675;27;20492;-87
2023/05/17 10:29:42;;;;;;;11.48;3.05;;;15.20;69.70;;;;;;5100324;27;20043;-87
2023/05/17 10:32:09;;;;;;;13.60;2.67;;;15.30;70.30;;;;;;5117513;27;20385;-87
2023/05/17 10:34:36;;;;;;;14.05;3.90;;;15.40;70.20;;;;;;5117765;27;20492;-87
2023/05/17 10:37:02;;;;;;;13.52;3.90;;;15.50;69.20;;;;;;5117272;27;20051;-86
2023/05/17 10:39:28;;;;;;;14.10;3.33;;;15.50;68.20;;;;;;5099881;27;20053;-87
2023/05/17 10:41:56;;;;;;;12.13;3.17;;;15.50;68.10;;;;;;5117471;27;20043;-88
2023/05/17 10:44:22;;;;;;;11.98;2.42;;;15.60;68.20;;;;;;5100369;27;20035;-87
2023/05/17 10:46:56;;;;;;;10.70;3.10;;;15.70;68.90;;;;;;5100219;27;20034;-87
2023/05/17 10:49:28;;;;;;;12.77;2.95;;;15.90;66.50;;;;;;5117258;27;20043;-87
2023/05/17 10:51:55;;;;;;;14.93;3.30;;;15.90;65.70;;;;;;5100766;27;20488;-87
2023/05/17 10:54:38;;;;;;;14.35;3.15;;;15.90;65.40;;;;;;5100677;27;20062;-87
2023/05/17 10:57:05;;;;;;;11.13;1.83;;;15.90;65.20;;;;;;5117200;27;20034;-88
2023/05/17 10:59:32;;;;;;;11.93;2.38;;;15.80;66.70;;;;;;5115348;27;20548;-87
2023/05/17 11:01:58;;;;;;;12.73;2.95;;;15.80;66.90;;;;;;5100002;27;20496;-87
2023/05/17 11:04:44;;;;;;;11.68;2.80;;;15.80;66.40;;;;;;5100286;27;20046;-87
2023/05/17 11:07:16;;;;;;;14.20;3.20;;;15.90;66.70;;;;;;5100000;27;20138;-87
2023/05/17 11:09:48;;;;;;;10.57;2.40;;;16.00;67.30;;;;;;5116712;27;20050;-87
2023/05/17 11:12:15;;;;;;;10.75;2.47;;;16.20;68.00;;;;;;5100130;27;20043;-87
2023/05/17 11:14:44;;;;;;;12.20;3.00;;;16.40;65.60;;;;;;5100303;27;20396;-88
2023/05/17 11:17:17;;;;;;;9.95;2.92;;;16.60;64.20;;;;;;5099954;27;20050;-88
2023/05/17 11:19:58;;;;;;;9.30;2.05;;;16.80;64.10;;;;;;5099484;27;20039;-87
2023/05/17 11:22:32;;;;;;;11.45;2.58;;;16.90;64.10;;;;;;5116807;27;20039;-88
2023/05/17 11:25:00;;;;;;;11.48;2.60;;;17.00;63.20;;;;;;5116761;27;20051;-88
2023/05/17 11:27:34;;;;;;;11.43;2.72;;;17.00;62.80;;;;;;5100071;27;20304;-88
2023/05/17 11:30:08;;;;;;;12.07;2.53;;;17.10;62.30;;;;;;5099329;27;20488;-88
2023/05/17 11:32:33;;;;;;;12.13;2.78;;;17.20;62.20;;;;;;5116754;27;20050;-88
2023/05/17 11:35:00;;;;;;;12.70;4.00;;;17.10;61.90;;;;;;5116890;27;20031;-88
2023/05/17 11:37:26;;;;;;;12.80;3.65;;;17.10;62.10;;;;;;5099261;27;20047;-88
2023/05/17 11:40:06;;;;;;;12.80;3.90;;;17.20;62.30;;;;;;5134511;27;20412;-88
2023/05/17 11:42:36;;;;;;;11.07;2.85;;;17.40;61.70;;;;;;5099751;27;20027;-88
2023/05/17 11:45:03;;;;;;;10.88;2.38;;;17.60;61.50;;;;;;5099539;27;20066;-88
2023/05/17 11:47:29;;;;;;;10.55;2.45;;;17.70;61.80;;;;;;5099228;27;20126;-88
2023/05/17 11:49:59;;;;;;;10.15;2.40;;;17.90;60.80;;;;;;5098938;27;20122;-88
2023/05/17 11:52:26;;;;;;;11.20;2.97;;;18.00;60.70;;;;;;5099202;27;20078;-88
2023/05/17 11:54:52;;;;;;;10.27;2.17;;;18.10;59.80;;;;;;5116286;27;20046;-88
2023/05/17 11:57:20;;;;;;;9.07;2.28;;;18.00;59.60;;;;;;5116179;27;20031;-88
2023/05/17 11:59:46;;;;;;;11.18;2.53;;;18.00;59.60;;;;;;5115976;27;20118;-87
2023/05/17 12:02:30;;;;;;;10.38;2.38;;;18.10;59.50;;;;;;5116176;27;20118;-88
2023/05/17 12:04:56;;;;;;;9.20;2.95;;;18.20;59.70;;;;;;5116174;27;20488;-87
2023/05/17 12:07:23;;;;;;;10.68;3.58;;;18.40;59.90;;;;;;5099136;27;20042;-87
2023/05/17 12:09:49;;;;;;;11.00;2.58;;;18.50;59.70;;;;;;5115070;27;20039;-88
2023/05/17 12:12:15;;;;;;;8.93;2.28;;;18.40;58.90;;;;;;5099045;27;20399;-87
2023/05/17 12:14:44;;;;;;;11.43;2.28;;;18.40;57.90;;;;;;5098970;27;20043;-88
2023/05/17 12:17:15;;;;;;;9.43;2.20;;;18.50;59.20;;;;;;5098456;27;20039;-87
2023/05/17 12:19:41;;;;;;;11.82;2.28;;;18.70;57.40;;;;;;5098397;27;20126;-87
2023/05/17 12:22:07;;;;;;;8.73;2.42;;;18.80;57.80;;;;;;5098624;27;20062;-87
2023/05/17 12:24:38;;;;;;;10.00;2.45;;;19.00;58.50;;;;;;5098518;27;20047;-87
2023/05/17 12:27:04;;;;;;;10.10;2.25;;;19.10;58.50;;;;;;5115426;27;20179;-86
2023/05/17 12:29:30;;;;;;;8.75;2.15;;;19.20;57.80;;;;;;5098090;27;20039;-86
2023/05/17 12:31:56;;;;;;;9.43;2.30;;;19.20;57.60;;;;;;5098471;27;20043;-86
2023/05/17 12:34:22;;;;;;;9.20;2.50;;;19.30;57.10;;;;;;5098241;27;20051;-87
2023/05/17 12:36:49;;;;;;;9.00;2.40;;;19.40;56.40;;;;;;5115251;27;20043;-86
2023/05/17 12:39:16;;;;;;;13.05;2.25;;;19.50;55.20;;;;;;5115076;27;20500;-86
2023/05/17 12:41:42;;;;;;;11.25;2.45;;;19.60;55.10;;;;;;5114903;27;20035;-86
2023/05/17 12:44:10;;;;;;;9.20;2.30;;;19.60;55.40;;;;;;5115108;27;20516;-86